My webcam more information My webcam


Thunder radar more information blitzortung!


Rain radar more information rain snow radar


Visit our other weather sites:

Template documentation
and downloads

And another site



Nearby METAR Reports

   
KAVP - Albrightsville, PA
Updated: Nov 13 2018 12:29 pm
Overcast  
Overcast  
   Wind: NW 10.4 mph
Wind: NW 10.4 mph
Temperature: 39.2°F
Wind Chill: 32°F
Dew Point: 35.6°F
Humidity: 87%
Barometer: 29.95 inHg
Clouds: Overcast
Visibility: 10 mi
Cloud details: Overcast 335 m
KAVP 131729Z 31009KT 10SM OVC011 04/02 A2995 RMK AO2 T00390022
KIWA - Apache Junction, AZ
Updated: Nov 13 2018 11:49 am
Clear  
Clear  
   Wind: ENE 13.8 mph
Wind: ENE 13.8 mph
Temperature: 55.4°F
Dew Point: 12.2°F
Humidity: 18%
Barometer: 30.52 inHg
Clouds: Clear
Visibility: 40 mi
Cloud details: Clear
KIWA 131649Z 06012KT 40SM SKC 13/M11 A3052
KPKB - Blue Rock, OH
Updated: Nov 13 2018 11:53 am
Mist, Overcast  
Mist, Overcast  
   Wind: Calm
Wind: Calm
Temperature: 37.4°F
Dew Point: 33.8°F
Humidity: 87%
Barometer: 30.24 inHg
Clouds: Overcast
Visibility: 6 mi
Cloud details: Mostly Cloudy 244 m,
Overcast 427 m
KPKB 131653Z 00000KT 6SM BR BKN008 OVC014 03/01 A3024 RMK AO2 UPB1557E1559B32E41RAB41E50SNE1557B1559E32 CIG 005V010 SLP244 P0001 T00280006
KHVN - Branford, CT
Updated: Nov 13 2018 11:53 am
Mist, Overcast  
Mist, Overcast  
   Wind: North 11.5 mph
Wind: North 11.5 mph
Temperature: 46.4°F
Wind Chill: 41°F
Dew Point: 44.6°F
Humidity: 93%
Barometer: 29.76 inHg
Clouds: Overcast
Visibility: 2 mi
Cloud details: Mostly Cloudy 183 m,
Overcast 427 m
KHVN 131653Z 35010KT 2 1/2SM BR BKN006 OVC014 08/07 A2976 RMK AO2 RAE29 SLP076 P0001 T00830072 $
KPHX - Carefree, AZ
Updated: Nov 13 2018 11:51 am
Clear  
Clear  
   Wind: ENE 11.5 mph
Wind: ENE 11.5 mph
Temperature: 57.2°F
Dew Point: 14°F
Humidity: 18%
Barometer: 30.49 inHg
Clouds: Clear
Visibility: 10 mi
Cloud details: Clear
KPHX 131651Z 06010KT 10SM CLR 14/M10 A3049 RMK AO2 SLP319 T01391100
 

Script developed by  Saratoga-weather.org Adapted for the template by  Weerstation Leuven

You find our weather info also at:

WeatherCloud

Weather Underground

Citizen Weather Observer Program (CWOP)

HAMweather, WeatherForYou, PWS Weather

Anything Weather